Hlavní strana
METAR-TAF:

METAR-TAF

Letiště :

Dakar, Senegal

zeměpisná šířka: 14-44N, zeměpisná délka: 017-30W, výška: 27 m

Aktuální stav počasí

Zpráva byla vytvořena před 1 hodinou a 10 minutami, v 22:00 UTC
Severní vítr 10 kt
Teplota 19°C
Vlhkost vzduchu 83%
Tlak 1016 hPa
Viditelnost: 8000 m

METAR: GOOY 222200Z 36010KT 8000 NSC 19/16 Q1016

Čas: 23:10 (23:10 UTC)

Předpověď počasí

Zpráva byla vytvořena před 5 hodinami a 40 minutami, v 17:30 UTC
Předpověď platná od 22 v 18 UTC do 23 v 24 UTC
Severní vítr 12 kt
Viditelnost 10 km a více
Žádná oblačnost pod 1500 m, nevyskytují se cumulonimby.

TAF: GOOY 221730Z 2218/2324 01012KT CAVOK

Stav a předpovědi počasí z více než 4 000 letišť (zprávy METAR a TAF).

Červené a žluté tečky na mapě představují dostupné meteorologické stanice.

Když kurzor umístíte na tečku, zobrazí se název stanice.

Pak kliknutím zobrazíte stav a předpověď počasí.

Chcete-li změnit mapu, kliknutím na zelené tlačítko se znaménkem +mapu přiblížíte, kliknutím na zelené tlačítko se znaménkem – mapu oddálíte a kliknutím na zelené šipky přejdete na sousední mapy.


METAR-TAF: